createdAt,value
2018-11-05T00:02:29.476Z,92.46
2018-11-05T00:06:33.541Z,92.12
2018-11-05T00:10:37.538Z,91.60
2018-11-05T00:14:41.419Z,92.16
2018-11-05T00:18:45.535Z,91.71
2018-11-05T00:22:49.443Z,91.95
2018-11-05T00:26:54.280Z,93.07
2018-11-05T00:30:58.460Z,92.78
2018-11-05T00:35:02.444Z,92.38
2018-11-05T00:39:09.140Z,92.91
2018-11-05T00:43:13.059Z,92.21
2018-11-05T00:47:17.316Z,92.09
2018-11-05T00:51:21.237Z,92.28
2018-11-05T00:55:25.172Z,92.09
2018-11-05T00:59:29.157Z,91.35
2018-11-05T01:03:33.052Z,91.59
2018-11-05T01:07:37.006Z,93.11
2018-11-05T01:11:40.985Z,93.22
2018-11-05T01:15:46.069Z,92.67
2018-11-05T01:19:51.395Z,92.04
2018-11-05T01:23:56.298Z,92.37
2018-11-05T01:28:01.229Z,92.75
2018-11-05T01:32:06.115Z,92.96
2018-11-05T01:36:10.447Z,92.86
2018-11-05T01:40:15.750Z,93.84
2018-11-05T01:44:20.095Z,93.52
2018-11-05T01:48:24.831Z,93.84
2018-11-05T01:52:30.273Z,94.15
2018-11-05T01:56:34.698Z,93.41
2018-11-05T02:00:39.102Z,93.92
2018-11-05T02:04:43.756Z,94.38
2018-11-05T02:08:48.567Z,94.75
2018-11-05T02:12:53.409Z,95.18
2018-11-05T02:16:57.990Z,94.75
2018-11-05T02:21:02.572Z,94.77
2018-11-05T02:25:08.692Z,95.01
2018-11-05T02:29:13.440Z,94.98
2018-11-05T02:33:17.894Z,94.87
2018-11-05T02:37:22.459Z,94.43
2018-11-05T02:41:27.027Z,94.37
2018-11-05T02:45:31.571Z,94.69
2018-11-05T02:49:35.789Z,94.65
2018-11-05T02:53:40.088Z,94.49
2018-11-05T02:57:44.510Z,94.11
2018-11-05T03:01:48.840Z,93.96
2018-11-05T03:05:53.116Z,93.92
2018-11-05T03:09:57.428Z,94.16
2018-11-05T03:14:01.863Z,94.03
2018-11-05T03:18:06.824Z,94.08
2018-11-05T03:22:11.127Z,93.99
2018-11-05T03:26:15.420Z,93.55
2018-11-05T03:30:19.850Z,94.03
2018-11-05T03:34:24.110Z,94.20
2018-11-05T03:38:28.452Z,94.35
2018-11-05T03:42:32.977Z,93.77
2018-11-05T03:46:38.635Z,94.06
2018-11-05T03:50:42.981Z,94.03
2018-11-05T03:54:47.964Z,94.00
2018-11-05T03:58:52.059Z,93.84
2018-11-05T04:02:56.833Z,93.77
2018-11-05T04:07:01.049Z,93.57
2018-11-05T04:11:05.765Z,94.54
2018-11-05T04:15:10.333Z,94.54
2018-11-05T04:19:15.249Z,93.25
2018-11-05T04:23:20.013Z,92.92
2018-11-05T04:27:24.172Z,93.02
2018-11-05T04:31:29.364Z,93.93
2018-11-05T04:35:34.037Z,94.37
2018-11-05T04:39:38.169Z,94.48
2018-11-05T04:43:42.770Z,94.55
2018-11-05T04:47:47.747Z,93.73
2018-11-05T04:51:52.277Z,93.83
2018-11-05T04:55:56.487Z,93.75
2018-11-05T05:00:05.393Z,93.91
2018-11-05T05:04:09.728Z,93.52
2018-11-05T05:08:15.005Z,93.58
2018-11-05T05:12:19.386Z,94.24
2018-11-05T05:16:23.901Z,94.44
2018-11-05T05:20:30.272Z,93.96
2018-11-05T05:24:35.046Z,94.49
2018-11-05T05:28:39.127Z,93.52
2018-11-05T05:32:44.941Z,93.75
2018-11-05T05:36:49.325Z,93.93
2018-11-05T05:40:53.515Z,93.13
2018-11-05T05:44:57.747Z,93.15
2018-11-05T05:49:02.447Z,94.57
2018-11-05T05:53:06.698Z,93.73
2018-11-05T05:57:11.796Z,94.92
2018-11-05T06:01:16.123Z,94.67
2018-11-05T06:05:20.617Z,94.66
2018-11-05T06:09:25.066Z,95.63
2018-11-05T06:13:29.436Z,95.12
2018-11-05T06:17:33.924Z,94.37
2018-11-05T06:21:38.219Z,94.48
2018-11-05T06:25:42.701Z,94.36
2018-11-05T06:29:46.908Z,95.25
2018-11-05T06:33:51.302Z,95.52
2018-11-05T06:37:55.564Z,95.41
2018-11-05T06:41:59.755Z,95.14
2018-11-05T06:46:04.011Z,95.49
2018-11-05T06:50:10.336Z,95.64
2018-11-05T06:54:15.076Z,95.96
2018-11-05T06:58:19.861Z,95.77
2018-11-05T07:02:24.275Z,95.26
2018-11-05T07:06:28.760Z,95.23
2018-11-05T07:10:33.786Z,94.87
2018-11-05T07:14:38.174Z,95.51
2018-11-05T07:18:42.515Z,95.36
2018-11-05T07:22:48.082Z,95.79
2018-11-05T07:26:53.510Z,94.92
2018-11-05T07:30:57.962Z,95.23
2018-11-05T07:35:02.455Z,94.87
2018-11-05T07:39:10.229Z,95.59
2018-11-05T07:43:14.945Z,95.06
2018-11-05T07:47:19.392Z,94.87
2018-11-05T07:51:23.845Z,94.83
2018-11-05T07:55:28.408Z,93.97
2018-11-05T07:59:32.833Z,93.12
2018-11-05T08:03:37.919Z,93.44
2018-11-05T08:07:43.301Z,93.13
2018-11-05T08:11:47.315Z,92.72
2018-11-05T08:15:51.812Z,93.26
2018-11-05T08:19:55.984Z,92.75
2018-11-05T08:24:00.078Z,93.43
2018-11-05T08:28:05.594Z,93.19
2018-11-05T08:32:09.592Z,92.84
2018-11-05T08:36:13.907Z,92.54
2018-11-05T08:40:23.967Z,91.87
2018-11-05T08:44:28.533Z,90.70
2018-11-05T08:48:33.273Z,90.64
2018-11-05T08:52:37.730Z,89.16
2018-11-05T08:56:41.684Z,86.68
2018-11-05T09:00:51.137Z,86.26
2018-11-05T09:04:55.480Z,85.77
2018-11-05T09:08:59.400Z,87.30
2018-11-05T09:13:03.567Z,86.22
2018-11-05T09:17:07.865Z,86.80
2018-11-05T09:21:12.312Z,86.50
2018-11-05T09:25:16.955Z,86.08
2018-11-05T09:29:21.170Z,83.64
2018-11-05T09:33:25.110Z,82.08
2018-11-05T09:37:29.179Z,79.75
2018-11-05T09:41:33.247Z,77.20
2018-11-05T09:45:37.547Z,71.84
2018-11-05T09:49:41.709Z,68.02
2018-11-05T09:53:45.733Z,68.57
2018-11-05T09:57:49.754Z,66.86
2018-11-05T10:01:54.075Z,69.55
2018-11-05T10:05:58.041Z,68.95
2018-11-05T10:10:03.387Z,68.30
2018-11-05T10:14:07.882Z,69.10
2018-11-05T10:18:11.930Z,68.00
2018-11-05T10:22:16.817Z,68.52
2018-11-05T10:26:20.843Z,65.81
2018-11-05T10:30:26.027Z,69.69
2018-11-05T10:34:30.039Z,71.20
2018-11-05T10:38:34.288Z,74.61
2018-11-05T10:42:39.343Z,74.76
2018-11-05T10:46:43.505Z,77.53
2018-11-05T10:50:47.782Z,79.75
2018-11-05T10:54:51.807Z,82.05
2018-11-05T10:58:56.137Z,82.44
2018-11-05T11:03:05.823Z,83.09
2018-11-05T11:07:09.990Z,81.62
2018-11-05T11:11:14.617Z,81.42
2018-11-05T11:15:18.897Z,81.95
2018-11-05T11:19:22.917Z,84.53
2018-11-05T11:23:27.207Z,84.09
2018-11-05T11:27:31.979Z,84.39
2018-11-05T11:31:35.911Z,83.61
2018-11-05T11:35:40.291Z,81.73
2018-11-05T11:39:44.431Z,81.62
2018-11-05T11:43:50.184Z,81.85
2018-11-05T11:47:54.191Z,82.48
2018-11-05T11:51:59.228Z,82.40
2018-11-05T11:56:03.251Z,82.74
2018-11-05T12:00:17.062Z,82.27
2018-11-05T12:04:21.063Z,82.38
2018-11-05T12:08:25.106Z,83.00
2018-11-05T12:12:29.182Z,82.81
2018-11-05T12:16:33.229Z,81.87
2018-11-05T12:20:37.593Z,82.30
2018-11-05T12:24:42.495Z,81.88
2018-11-05T12:28:48.087Z,83.07
2018-11-05T12:32:53.220Z,81.86
2018-11-05T12:36:57.392Z,81.17
2018-11-05T12:41:02.181Z,80.95
2018-11-05T12:45:07.391Z,82.17
2018-11-05T12:49:11.413Z,82.44
2018-11-05T12:53:15.718Z,83.29
2018-11-05T12:57:20.287Z,83.98
2018-11-05T13:01:24.420Z,83.03
2018-11-05T13:05:29.566Z,83.39
2018-11-05T13:09:33.785Z,83.42
2018-11-05T13:13:37.997Z,83.25
2018-11-05T13:17:42.330Z,82.60
2018-11-05T13:21:46.651Z,83.20
2018-11-05T13:25:50.860Z,83.52
2018-11-05T13:29:55.369Z,83.11
2018-11-05T13:33:59.268Z,82.23
2018-11-05T13:38:03.872Z,82.64
2018-11-05T13:42:07.342Z,80.99
2018-11-05T13:46:11.406Z,79.42
2018-11-05T13:50:15.870Z,79.52
2018-11-05T13:54:19.590Z,79.08
2018-11-05T13:58:24.105Z,78.82
2018-11-05T14:02:28.020Z,77.97
2018-11-05T14:06:33.198Z,77.43
2018-11-05T14:10:37.099Z,79.14
2018-11-05T14:14:41.531Z,79.74
2018-11-05T14:18:45.413Z,80.72
2018-11-05T14:22:49.316Z,80.07
2018-11-05T14:26:53.250Z,80.26
2018-11-05T14:30:57.135Z,78.90
2018-11-05T14:35:01.729Z,77.93
2018-11-05T14:39:09.121Z,78.48
2018-11-05T14:43:13.145Z,79.51
2018-11-05T14:47:16.872Z,79.23
2018-11-05T14:51:21.143Z,78.02
2018-11-05T14:55:24.915Z,78.92
2018-11-05T14:59:28.896Z,80.56
2018-11-05T15:03:32.824Z,81.28
2018-11-05T15:07:37.382Z,80.88
2018-11-05T15:11:41.098Z,80.90
2018-11-05T15:15:45.261Z,81.56
2018-11-05T15:19:49.421Z,81.76
2018-11-05T15:23:53.045Z,81.41
2018-11-05T15:27:57.337Z,82.01
2018-11-05T15:32:01.420Z,81.63
2018-11-05T15:36:05.806Z,81.52
2018-11-05T15:40:11.412Z,82.20
2018-11-05T15:44:15.296Z,82.41
2018-11-05T15:48:19.196Z,82.78
2018-11-05T15:52:23.952Z,83.80
2018-11-05T15:56:27.703Z,83.07
2018-11-05T16:00:31.635Z,83.16
2018-11-05T16:04:35.671Z,83.25
2018-11-05T16:08:39.476Z,83.40
2018-11-05T16:12:43.443Z,84.09
2018-11-05T16:16:47.317Z,83.24
2018-11-05T16:20:51.220Z,82.82
2018-11-05T16:24:55.137Z,83.36
2018-11-05T16:28:59.071Z,83.76
2018-11-05T16:33:03.012Z,83.68
2018-11-05T16:37:06.961Z,82.90
2018-11-05T16:41:10.824Z,82.43
2018-11-05T16:45:15.621Z,82.60
2018-11-05T16:49:19.859Z,81.94
2018-11-05T16:53:24.203Z,82.37
2018-11-05T16:57:28.186Z,82.59
2018-11-05T17:01:32.405Z,82.73
2018-11-05T17:05:36.309Z,82.80
2018-11-05T17:09:41.180Z,83.88
2018-11-05T17:13:45.526Z,83.62
2018-11-05T17:17:49.354Z,84.46
2018-11-05T17:21:53.256Z,84.21
2018-11-05T17:25:57.364Z,85.55
2018-11-05T17:30:01.476Z,85.97
2018-11-05T17:34:06.237Z,86.66
2018-11-05T17:38:10.109Z,86.30
2018-11-05T17:42:13.984Z,85.87
2018-11-05T17:46:17.889Z,85.88
2018-11-05T17:50:22.413Z,86.65
2018-11-05T17:54:26.302Z,86.62
2018-11-05T17:58:30.162Z,85.69
2018-11-05T18:02:34.527Z,85.76
2018-11-05T18:06:38.456Z,85.62
2018-11-05T18:10:42.389Z,85.42
2018-11-05T18:14:46.343Z,86.14
2018-11-05T18:18:50.331Z,86.45
2018-11-05T18:22:54.480Z,85.81
2018-11-05T18:26:58.433Z,85.65
2018-11-05T18:31:02.797Z,86.05
2018-11-05T18:35:08.626Z,87.09
2018-11-05T18:39:12.685Z,86.84
2018-11-05T18:43:16.568Z,86.66
2018-11-05T18:47:21.572Z,86.85
2018-11-05T18:51:25.474Z,87.28
2018-11-05T18:55:30.740Z,87.08
2018-11-05T18:59:34.895Z,86.55
2018-11-05T19:03:38.891Z,87.08
2018-11-05T19:07:42.885Z,87.01
2018-11-05T19:11:47.090Z,87.44
2018-11-05T19:15:51.011Z,87.64
2018-11-05T19:19:54.812Z,87.08
2018-11-05T19:23:59.063Z,87.19
2018-11-05T19:28:02.915Z,86.59
2018-11-05T19:32:08.310Z,87.13
2018-11-05T19:36:12.327Z,87.02
2018-11-05T19:40:17.885Z,86.86
2018-11-05T19:44:21.768Z,87.04
2018-11-05T19:48:26.418Z,86.91
2018-11-05T19:52:30.349Z,87.02
2018-11-05T19:56:34.621Z,87.62
2018-11-05T20:00:38.556Z,87.72
2018-11-05T20:04:42.978Z,87.68
2018-11-05T20:08:47.250Z,87.83
2018-11-05T20:12:51.371Z,87.41
2018-11-05T20:16:57.167Z,87.92
2018-11-05T20:21:00.912Z,89.10
2018-11-05T20:25:07.536Z,88.79
2018-11-05T20:29:11.524Z,88.41
2018-11-05T20:33:15.779Z,87.86
2018-11-05T20:37:19.324Z,88.03
2018-11-05T20:41:23.512Z,87.75
2018-11-05T20:45:27.430Z,87.70
2018-11-05T20:49:32.496Z,87.74
2018-11-05T20:53:36.575Z,87.65
2018-11-05T20:57:41.048Z,87.49
2018-11-05T21:01:44.981Z,87.43
2018-11-05T21:05:49.340Z,87.24
2018-11-05T21:09:53.213Z,86.87
2018-11-05T21:13:58.551Z,86.83
2018-11-05T21:18:02.611Z,86.70
2018-11-05T21:22:09.273Z,86.95
2018-11-05T21:26:13.104Z,87.67
2018-11-05T21:30:18.403Z,87.61
2018-11-05T21:34:22.304Z,88.43
2018-11-05T21:38:26.217Z,89.09
2018-11-05T21:42:30.165Z,89.43
2018-11-05T21:46:34.212Z,90.46
2018-11-05T21:50:38.110Z,89.83
2018-11-05T21:54:42.001Z,89.85
2018-11-05T21:58:45.942Z,89.15
2018-11-05T22:02:55.599Z,88.42
2018-11-05T22:06:59.495Z,88.21
2018-11-05T22:11:03.410Z,88.15
2018-11-05T22:15:07.382Z,88.03
2018-11-05T22:19:12.344Z,88.16
2018-11-05T22:23:17.734Z,89.06
2018-11-05T22:27:22.472Z,89.23
2018-11-05T22:31:27.521Z,88.90
2018-11-05T22:35:32.414Z,88.64
2018-11-05T22:39:36.295Z,88.06
2018-11-05T22:43:40.276Z,87.98
2018-11-05T22:47:44.961Z,88.25
2018-11-05T22:51:49.901Z,89.46
2018-11-05T22:55:54.987Z,90.27
2018-11-05T22:59:59.001Z,90.15
2018-11-05T23:04:03.765Z,89.00
2018-11-05T23:08:07.655Z,88.79
2018-11-05T23:12:11.818Z,88.35
2018-11-05T23:16:16.098Z,87.78
2018-11-05T23:20:20.126Z,87.86
2018-11-05T23:24:24.241Z,89.42
2018-11-05T23:28:28.435Z,89.04
2018-11-05T23:32:32.372Z,88.23
2018-11-05T23:36:36.820Z,87.85
2018-11-05T23:40:40.738Z,87.71
2018-11-05T23:44:44.728Z,87.53
2018-11-05T23:48:48.656Z,87.64
2018-11-05T23:52:52.838Z,87.25
2018-11-05T23:56:56.724Z,87.43
